Time;durP1;ratioP1;P1;durP2;ratioP2;P2;SDS_P1;SDS_P2;PMS_P1;PMS_P2;Temp;Humidity;BMP_temperature;BMP_pressure;BME280_temperature;BME280_humidity;BME280_pressure;Samples;Min_cycle;Max_cycle;Signal;HPM_P1;HPM_P2
2021/08/03 00:02:18;;;;;;;8.50;2.10;;;;;;;;;;4928880;29;20553;-80
2021/08/03 00:05:04;;;;;;;2.80;1.80;;;;;;;;;;4927618;29;20066;-80
2021/08/03 00:07:49;;;;;;;4.28;1.80;;;;;;;;;;4924429;29;20598;-81
2021/08/03 00:10:35;;;;;;;6.32;1.88;;;;;;;;;;4934986;29;20042;-81
2021/08/03 00:13:21;;;;;;;4.18;1.80;;;;;;;;;;4929818;29;20024;-81
2021/08/03 00:16:10;;;;;;;3.22;1.80;;;;;;;;;;4933577;29;20020;-81
2021/08/03 00:18:55;;;;;;;5.50;2.08;;;;;;;;;;4934360;29;20044;-81
2021/08/03 00:21:41;;;;;;;4.88;2.08;;;;;;;;;;4930506;29;20119;-81
2021/08/03 00:24:26;;;;;;;2.08;1.70;;;;;;;;;;4930126;29;20136;-81
2021/08/03 00:27:12;;;;;;;6.05;2.03;;;;;;;;;;4936007;29;20601;-81
2021/08/03 00:29:57;;;;;;;3.60;1.58;;;;;;;;;;4919167;29;20036;-81
2021/08/03 00:32:43;;;;;;;2.50;1.83;;;;;;;;;;4940313;29;20447;-81
2021/08/03 00:35:28;;;;;;;2.75;1.73;;;;;;;;;;4936407;29;20046;-81
2021/08/03 00:38:13;;;;;;;6.57;1.98;;;;;;;;;;4934451;29;20020;-79
2021/08/03 00:41:00;;;;;;;2.22;1.90;;;;;;;;;;4925763;29;20028;-80
2021/08/03 00:43:45;;;;;;;4.40;1.80;;;;;;;;;;4919067;29;20035;-80
2021/08/03 00:46:30;;;;;;;2.60;1.90;;;;;;;;;;4938807;29;20035;-80
2021/08/03 00:49:15;;;;;;;5.28;1.65;;;;;;;;;;4930397;29;20552;-80
2021/08/03 00:52:01;;;;;;;4.43;1.67;;;;;;;;;;4935395;29;20154;-80
2021/08/03 00:54:47;;;;;;;2.47;1.52;;;;;;;;;;4926146;29;20494;-80
2021/08/03 00:57:32;;;;;;;6.30;1.80;;;;;;;;;;4935966;29;20030;-80
2021/08/03 01:00:17;;;;;;;3.35;2.00;;;;;;;;;;4933230;29;20028;-80
2021/08/03 01:03:02;;;;;;;5.68;2.20;;;;;;;;;;4924786;29;20402;-80
2021/08/03 01:05:47;;;;;;;4.03;2.05;;;;;;;;;;4926764;29;20486;-80
2021/08/03 01:08:52;;;;;;;4.35;1.80;;;;;;;;;;4939163;29;20043;-80
2021/08/03 01:11:45;;;;;;;1.73;1.63;;;;;;;;;;4933930;29;20027;-80
2021/08/03 01:14:39;;;;;;;3.65;1.92;;;;;;;;;;4930172;29;20077;-80
2021/08/03 01:17:34;;;;;;;5.68;2.35;;;;;;;;;;4930585;29;20103;-81
2021/08/03 01:20:22;;;;;;;3.90;2.03;;;;;;;;;;4939349;29;20057;-81
2021/08/03 01:23:35;;;;;;;4.95;1.90;;;;;;;;;;4928048;29;20370;-81
2021/08/03 01:26:39;;;;;;;3.50;2.00;;;;;;;;;;4941200;29;20075;-80
2021/08/03 01:29:25;;;;;;;4.18;1.55;;;;;;;;;;4932360;29;20033;-80
2021/08/03 01:32:13;;;;;;;2.20;1.60;;;;;;;;;;4927313;29;20406;-80
2021/08/03 01:35:00;;;;;;;4.68;1.92;;;;;;;;;;4931233;29;20024;-80
2021/08/03 01:37:46;;;;;;;5.30;2.10;;;;;;;;;;4926455;29;20032;-80
2021/08/03 01:40:31;;;;;;;4.47;2.00;;;;;;;;;;4936893;29;20655;-80
2021/08/03 01:43:16;;;;;;;6.00;1.80;;;;;;;;;;4931375;29;20035;-80
2021/08/03 01:46:04;;;;;;;6.80;1.80;;;;;;;;;;4943419;28;20585;-80
2021/08/03 01:48:50;;;;;;;4.50;2.03;;;;;;;;;;4923220;29;20027;-80
2021/08/03 01:51:35;;;;;;;3.30;2.00;;;;;;;;;;4957650;28;20031;-80
2021/08/03 01:54:20;;;;;;;7.75;2.20;;;;;;;;;;4928834;29;20032;-79
2021/08/03 01:57:07;;;;;;;3.63;1.40;;;;;;;;;;4911629;29;20051;-80
2021/08/03 01:59:52;;;;;;;8.98;1.83;;;;;;;;;;4936007;29;20054;-80
2021/08/03 02:02:39;;;;;;;4.53;1.90;;;;;;;;;;4932403;29;20034;-80
2021/08/03 02:05:24;;;;;;;7.93;1.98;;;;;;;;;;4931580;29;20026;-80
2021/08/03 02:08:10;;;;;;;6.55;2.80;;;;;;;;;;4931896;29;20031;-80
2021/08/03 02:10:56;;;;;;;1.98;1.60;;;;;;;;;;4934208;29;20134;-80
2021/08/03 02:13:43;;;;;;;4.13;1.65;;;;;;;;;;4944534;28;20024;-80
2021/08/03 02:16:29;;;;;;;5.68;1.60;;;;;;;;;;4938553;29;20529;-80
2021/08/03 02:19:15;;;;;;;4.43;1.92;;;;;;;;;;4938920;29;20478;-80
2021/08/03 02:22:00;;;;;;;7.47;2.40;;;;;;;;;;4932048;29;20035;-81
2021/08/03 02:24:46;;;;;;;4.07;1.80;;;;;;;;;;4935048;29;20188;-80
2021/08/03 02:27:31;;;;;;;2.00;1.60;;;;;;;;;;4941214;29;20055;-81
2021/08/03 02:30:16;;;;;;;3.95;1.90;;;;;;;;;;4939296;28;20028;-80
2021/08/03 02:33:20;;;;;;;5.78;2.17;;;;;;;;;;4927818;29;20024;-80
2021/08/03 02:36:11;;;;;;;4.53;1.92;;;;;;;;;;4928083;29;20064;-80
2021/08/03 02:38:59;;;;;;;5.88;1.63;;;;;;;;;;4933250;29;20028;-80
2021/08/03 02:41:45;;;;;;;5.95;1.90;;;;;;;;;;4931953;29;20505;-80
2021/08/03 02:44:30;;;;;;;4.38;1.98;;;;;;;;;;4923911;29;20038;-79
2021/08/03 02:47:25;;;;;;;2.40;1.52;;;;;;;;;;4936884;29;20027;-80
2021/08/03 02:50:11;;;;;;;6.07;2.58;;;;;;;;;;4930808;29;20059;-80
2021/08/03 02:53:00;;;;;;;2.92;1.58;;;;;;;;;;4927837;29;20058;-79
2021/08/03 02:55:48;;;;;;;5.93;1.70;;;;;;;;;;4931960;29;20054;-80
2021/08/03 02:58:36;;;;;;;3.70;1.90;;;;;;;;;;4931283;29;20478;-80
2021/08/03 03:01:24;;;;;;;6.50;2.05;;;;;;;;;;4925611;29;20115;-80
2021/08/03 03:04:14;;;;;;;6.25;2.00;;;;;;;;;;4935180;28;20086;-81
2021/08/03 03:07:07;;;;;;;6.07;1.70;;;;;;;;;;4935094;28;20032;-80
2021/08/03 03:09:53;;;;;;;9.15;2.25;;;;;;;;;;4934238;29;20031;-79
2021/08/03 03:12:40;;;;;;;2.45;1.83;;;;;;;;;;4934558;29;20103;-79
2021/08/03 03:15:25;;;;;;;4.80;1.90;;;;;;;;;;4935819;29;20023;-80
2021/08/03 03:18:11;;;;;;;2.25;1.85;;;;;;;;;;4924169;29;20031;-80
2021/08/03 03:20:57;;;;;;;5.80;2.38;;;;;;;;;;4940410;29;20057;-81
2021/08/03 03:23:42;;;;;;;4.22;2.00;;;;;;;;;;4932025;29;20023;-81
2021/08/03 03:26:30;;;;;;;6.68;3.22;;;;;;;;;;4932469;28;20027;-81
2021/08/03 03:29:16;;;;;;;4.25;1.85;;;;;;;;;;4931228;29;20458;-80
2021/08/03 03:32:01;;;;;;;4.20;2.15;;;;;;;;;;4926679;29;20035;-80
2021/08/03 03:34:47;;;;;;;3.40;1.88;;;;;;;;;;4939495;29;20031;-80
2021/08/03 03:37:33;;;;;;;4.88;1.98;;;;;;;;;;4927452;29;20026;-80
2021/08/03 03:40:19;;;;;;;3.78;2.00;;;;;;;;;;4925515;29;20434;-78
2021/08/03 03:43:05;;;;;;;4.03;2.70;;;;;;;;;;4919587;29;20032;-80
2021/08/03 03:45:56;;;;;;;4.32;1.77;;;;;;;;;;4926759;29;20387;-80
2021/08/03 03:48:48;;;;;;;6.15;1.90;;;;;;;;;;4918619;29;20015;-80
2021/08/03 03:51:36;;;;;;;4.43;2.10;;;;;;;;;;4925884;29;20086;-80
2021/08/03 03:54:25;;;;;;;4.32;2.00;;;;;;;;;;4929631;29;20027;-80
2021/08/03 03:57:11;;;;;;;5.97;2.15;;;;;;;;;;4932484;29;20134;-80
2021/08/03 03:59:58;;;;;;;2.00;1.70;;;;;;;;;;4930541;29;20027;-80
2021/08/03 04:02:43;;;;;;;3.75;1.98;;;;;;;;;;4934337;29;20035;-80
2021/08/03 04:05:29;;;;;;;5.05;1.77;;;;;;;;;;4944807;29;20398;-80
2021/08/03 04:08:14;;;;;;;3.67;1.80;;;;;;;;;;4933261;29;20134;-80
2021/08/03 04:11:00;;;;;;;3.67;2.13;;;;;;;;;;4917501;29;20031;-80
2021/08/03 04:13:47;;;;;;;4.63;2.13;;;;;;;;;;4926596;29;20051;-80
2021/08/03 04:16:32;;;;;;;3.85;2.25;;;;;;;;;;4936443;28;20073;-80
2021/08/03 04:19:17;;;;;;;6.80;2.20;;;;;;;;;;4932489;29;20047;-80
2021/08/03 04:22:03;;;;;;;5.32;2.10;;;;;;;;;;4921035;29;20027;-80
2021/08/03 04:24:48;;;;;;;5.80;2.30;;;;;;;;;;4934171;29;20052;-80
2021/08/03 04:27:33;;;;;;;5.07;2.10;;;;;;;;;;4940138;29;20031;-79
2021/08/03 04:30:18;;;;;;;6.53;2.00;;;;;;;;;;4936629;29;20434;-79
2021/08/03 04:33:04;;;;;;;5.25;2.40;;;;;;;;;;4932818;29;20398;-79
2021/08/03 04:35:49;;;;;;;3.75;2.25;;;;;;;;;;4922114;29;20026;-80
2021/08/03 04:38:34;;;;;;;4.45;2.70;;;;;;;;;;4957371;28;20102;-80
2021/08/03 04:41:19;;;;;;;5.88;2.25;;;;;;;;;;4938869;29;20027;-80
2021/08/03 04:44:04;;;;;;;9.20;2.28;;;;;;;;;;4944862;28;20524;-80
2021/08/03 04:46:50;;;;;;;6.70;2.67;;;;;;;;;;4935998;29;20724;-80
2021/08/03 04:49:35;;;;;;;5.93;2.35;;;;;;;;;;4938479;29;20069;-80
2021/08/03 04:52:20;;;;;;;8.00;3.63;;;;;;;;;;4942096;29;20023;-80
2021/08/03 04:55:06;;;;;;;6.03;2.28;;;;;;;;;;4937960;29;20039;-81
2021/08/03 04:57:51;;;;;;;4.00;2.28;;;;;;;;;;4934453;29;20027;-80
2021/08/03 05:00:37;;;;;;;3.10;1.80;;;;;;;;;;4934927;29;20680;-80
2021/08/03 05:03:22;;;;;;;6.20;2.42;;;;;;;;;;4928675;29;20118;-80
2021/08/03 05:06:07;;;;;;;5.68;2.28;;;;;;;;;;4935261;29;20035;-80
2021/08/03 05:08:52;;;;;;;8.02;2.72;;;;;;;;;;4932288;29;20510;-81
2021/08/03 05:11:37;;;;;;;6.78;2.38;;;;;;;;;;4929916;29;20387;-80
2021/08/03 05:14:23;;;;;;;5.15;2.30;;;;;;;;;;4920375;29;20031;-81
2021/08/03 05:17:08;;;;;;;8.63;2.30;;;;;;;;;;4934746;29;20106;-81
2021/08/03 05:19:53;;;;;;;7.53;2.83;;;;;;;;;;4938092;29;20024;-81
2021/08/03 05:22:39;;;;;;;6.45;2.05;;;;;;;;;;4929312;29;20404;-82
2021/08/03 05:25:24;;;;;;;5.72;2.13;;;;;;;;;;4933626;29;20030;-80
2021/08/03 05:28:09;;;;;;;7.20;2.40;;;;;;;;;;4936873;29;20039;-80
2021/08/03 05:30:54;;;;;;;7.53;2.72;;;;;;;;;;4936702;29;20266;-81
2021/08/03 05:33:40;;;;;;;5.30;2.25;;;;;;;;;;4929053;29;20366;-82
2021/08/03 05:36:25;;;;;;;4.70;2.40;;;;;;;;;;4924912;29;20094;-82
2021/08/03 05:39:12;;;;;;;8.20;2.80;;;;;;;;;;4932876;29;20024;-81
2021/08/03 05:41:57;;;;;;;7.15;2.33;;;;;;;;;;4929103;29;20087;-82
2021/08/03 05:44:43;;;;;;;4.53;2.60;;;;;;;;;;4929982;29;20050;-81
2021/08/03 05:47:29;;;;;;;7.30;2.33;;;;;;;;;;4924556;28;20066;-84
2021/08/03 05:50:14;;;;;;;6.35;2.47;;;;;;;;;;4936696;29;20607;-83
2021/08/03 05:52:59;;;;;;;4.05;2.30;;;;;;;;;;4932232;29;20115;-83
2021/08/03 05:55:44;;;;;;;7.32;2.30;;;;;;;;;;4932284;29;20043;-82
2021/08/03 05:58:29;;;;;;;8.00;2.22;;;;;;;;;;4929039;29;20027;-81
2021/08/03 06:01:15;;;;;;;7.80;2.80;;;;;;;;;;4935047;29;20473;-82
2021/08/03 06:04:00;;;;;;;7.25;2.40;;;;;;;;;;4942373;28;20054;-83
2021/08/03 06:06:47;;;;;;;5.85;2.70;;;;;;;;;;4937205;29;20026;-82
2021/08/03 06:09:35;;;;;;;7.97;2.78;;;;;;;;;;4934820;29;20110;-82
2021/08/03 06:12:20;;;;;;;5.20;2.80;;;;;;;;;;4930867;29;20119;-83
2021/08/03 06:15:06;;;;;;;8.02;3.17;;;;;;;;;;4933438;29;20040;-84
2021/08/03 06:18:00;;;;;;;8.77;2.97;;;;;;;;;;4935352;29;20030;-84
2021/08/03 06:20:47;;;;;;;5.57;2.50;;;;;;;;;;4927032;29;20031;-83
2021/08/03 06:23:33;;;;;;;6.32;3.10;;;;;;;;;;4917688;29;20497;-83
2021/08/03 06:26:19;;;;;;;5.82;3.20;;;;;;;;;;4912292;29;20032;-83
2021/08/03 06:29:05;;;;;;;5.90;2.47;;;;;;;;;;4929428;29;20452;-83
2021/08/03 06:31:50;;;;;;;5.93;2.47;;;;;;;;;;4917426;29;20087;-83
2021/08/03 06:34:40;;;;;;;3.53;2.08;;;;;;;;;;4934734;29;20031;-83
2021/08/03 06:37:25;;;;;;;;;;;;;;;;;;4940934;29;20430;-84
2021/08/03 06:40:10;;;;;;;5.35;2.78;;;;;;;;;;4933740;29;19918;-84
2021/08/03 06:43:06;;;;;;;8.85;2.30;;;;;;;;;;4940124;29;20389;-85
2021/08/03 06:45:54;;;;;;;3.15;1.90;;;;;;;;;;4929892;29;20032;-84
2021/08/03 06:48:39;;;;;;;11.13;6.82;;;;;;;;;;4931242;29;21418;-85
2021/08/03 06:51:26;;;;;;;16.10;8.93;;;;;;;;;;4937157;29;20153;-84
2021/08/03 06:54:11;;;;;;;3.05;2.13;;;;;;;;;;4932975;29;20034;-85
2021/08/03 06:57:04;;;;;;;5.32;2.28;;;;;;;;;;4933108;29;20135;-83
2021/08/03 06:59:51;;;;;;;4.68;2.30;;;;;;;;;;4927310;29;20490;-85
2021/08/03 07:02:41;;;;;;;3.47;2.42;;;;;;;;;;4938748;29;20110;-84
2021/08/03 07:05:27;;;;;;;5.15;2.10;;;;;;;;;;4925847;29;20028;-84
2021/08/03 07:08:14;;;;;;;4.57;1.77;;;;;;;;;;4938664;29;20077;-84
2021/08/03 07:11:00;;;;;;;3.88;2.00;;;;;;;;;;4916061;29;20055;-86
2021/08/03 07:13:45;;;;;;;4.97;1.67;;;;;;;;;;4929697;29;20450;-84
2021/08/03 07:16:31;;;;;;;5.25;1.90;;;;;;;;;;4934154;29;20082;-85
2021/08/03 07:19:17;;;;;;;3.25;1.52;;;;;;;;;;4927445;29;20028;-84
2021/08/03 07:22:03;;;;;;;4.95;1.80;;;;;;;;;;4934226;29;20038;-84
2021/08/03 07:24:49;;;;;;;1.80;1.50;;;;;;;;;;4934934;28;20024;-84
2021/08/03 07:27:34;;;;;;;2.92;1.70;;;;;;;;;;4928296;29;20174;-82
2021/08/03 07:30:19;;;;;;;3.08;1.63;;;;;;;;;;4917375;29;20031;-84
2021/08/03 07:33:05;;;;;;;2.10;1.45;;;;;;;;;;4930311;29;20027;-82
2021/08/03 07:35:50;;;;;;;2.53;1.55;;;;;;;;;;4940626;28;20031;-82
2021/08/03 07:38:38;;;;;;;6.05;1.80;;;;;;;;;;4934514;29;20537;-84
2021/08/03 07:41:25;;;;;;;4.30;1.50;;;;;;;;;;4939207;28;20031;-82
2021/08/03 07:44:13;;;;;;;3.90;1.38;;;;;;;;;;4916762;29;20501;-83
2021/08/03 07:46:58;;;;;;;3.42;2.00;;;;;;;;;;4933756;29;20039;-83
2021/08/03 07:49:45;;;;;;;2.58;1.40;;;;;;;;;;4949837;28;20022;-82
2021/08/03 07:52:32;;;;;;;3.50;1.40;;;;;;;;;;4943868;28;20038;-83
2021/08/03 07:55:17;;;;;;;2.90;1.70;;;;;;;;;;4940150;28;20416;-82
2021/08/03 07:58:02;;;;;;;1.80;1.35;;;;;;;;;;4937762;29;20485;-83
2021/08/03 08:00:48;;;;;;;4.22;1.30;;;;;;;;;;4932494;28;20063;-84
2021/08/03 08:03:34;;;;;;;2.90;1.60;;;;;;;;;;4927752;29;20036;-82
2021/08/03 08:06:19;;;;;;;4.57;1.45;;;;;;;;;;4923339;29;20059;-83
2021/08/03 08:09:04;;;;;;;2.33;1.45;;;;;;;;;;4939533;28;20036;-80
2021/08/03 08:11:49;;;;;;;4.60;1.55;;;;;;;;;;4924479;29;20434;-83
2021/08/03 08:14:35;;;;;;;3.20;1.40;;;;;;;;;;4925304;29;20079;-83
2021/08/03 08:17:20;;;;;;;6.18;3.90;;;;;;;;;;4928846;29;20027;-82
2021/08/03 08:20:12;;;;;;;9.77;3.40;;;;;;;;;;4928146;29;20046;-82
2021/08/03 08:22:57;;;;;;;3.83;1.95;;;;;;;;;;4936776;29;20440;-83
2021/08/03 08:25:43;;;;;;;7.45;1.83;;;;;;;;;;4934374;29;20115;-83
2021/08/03 08:28:29;;;;;;;5.53;1.80;;;;;;;;;;4929569;29;20016;-81
2021/08/03 08:31:15;;;;;;;4.03;1.88;;;;;;;;;;4936162;29;20023;-84
2021/08/03 08:34:00;;;;;;;3.33;2.00;;;;;;;;;;4936839;29;20121;-83
2021/08/03 08:36:46;;;;;;;2.15;1.60;;;;;;;;;;4946267;29;20240;-84
2021/08/03 08:39:31;;;;;;;7.47;1.73;;;;;;;;;;4941762;29;20034;-83
2021/08/03 08:42:17;;;;;;;3.05;1.80;;;;;;;;;;4947935;29;20027;-84
2021/08/03 08:45:03;;;;;;;3.90;1.80;;;;;;;;;;4910216;29;20031;-83
2021/08/03 08:47:48;;;;;;;4.07;1.90;;;;;;;;;;4933903;29;20087;-84
2021/08/03 08:50:34;;;;;;;1.98;1.33;;;;;;;;;;4920288;28;20083;-85
2021/08/03 08:53:20;;;;;;;2.42;1.55;;;;;;;;;;4923328;29;20127;-84
2021/08/03 08:56:05;;;;;;;4.05;1.85;;;;;;;;;;4931020;29;20061;-85
2021/08/03 08:58:50;;;;;;;4.80;1.88;;;;;;;;;;4930605;29;20024;-83
2021/08/03 09:01:36;;;;;;;3.25;1.70;;;;;;;;;;4927736;29;20457;-82
2021/08/03 09:04:23;;;;;;;2.35;1.50;;;;;;;;;;4924659;29;20028;-86
2021/08/03 09:07:08;;;;;;;1.63;1.20;;;;;;;;;;4942189;29;20035;-86
2021/08/03 09:09:54;;;;;;;4.97;1.73;;;;;;;;;;4932278;29;20035;-85
2021/08/03 09:12:39;;;;;;;2.28;1.40;;;;;;;;;;4941696;29;20042;-83
2021/08/03 09:15:24;;;;;;;2.95;1.50;;;;;;;;;;4931692;29;20414;-84
2021/08/03 09:18:18;;;;;;;20.75;15.50;;;;;;;;;;4929113;29;20075;-84
2021/08/03 09:21:04;;;;;;;6.35;3.08;;;;;;;;;;4939732;29;20129;-86
2021/08/03 09:23:50;;;;;;;3.17;1.80;;;;;;;;;;4933441;29;20052;-85
2021/08/03 09:26:43;;;;;;;3.25;1.85;;;;;;;;;;4925892;29;20023;-84
2021/08/03 09:29:41;;;;;;;4.03;1.95;;;;;;;;;;4930628;29;20028;-84
2021/08/03 09:32:33;;;;;;;3.75;1.77;;;;;;;;;;4933387;29;20394;-85
2021/08/03 09:35:20;;;;;;;3.90;1.92;;;;;;;;;;4926669;29;20034;-86
2021/08/03 09:38:13;;;;;;;1.55;1.27;;;;;;;;;;4933695;29;20027;-85
2021/08/03 09:41:09;;;;;;;3.22;1.48;;;;;;;;;;4943483;29;20028;-85
2021/08/03 09:43:54;;;;;;;2.97;1.80;;;;;;;;;;4938575;29;20039;-85
2021/08/03 09:46:39;;;;;;;1.90;1.35;;;;;;;;;;4947212;28;20401;-85
2021/08/03 09:49:37;;;;;;;3.08;1.40;;;;;;;;;;4928580;29;20090;-85
2021/08/03 09:52:27;;;;;;;2.78;1.40;;;;;;;;;;4941260;28;20418;-86
2021/08/03 09:55:17;;;;;;;3.63;1.60;;;;;;;;;;4932652;29;20180;-86
2021/08/03 09:58:11;;;;;;;1.23;0.90;;;;;;;;;;4933247;29;20035;-86
2021/08/03 10:00:56;;;;;;;2.70;1.40;;;;;;;;;;4941537;29;20034;-87
2021/08/03 10:03:42;;;;;;;6.57;4.70;;;;;;;;;;4932631;29;20078;-86
2021/08/03 10:06:27;;;;;;;4.50;3.00;;;;;;;;;;4939852;29;20043;-84
2021/08/03 10:09:12;;;;;;;2.92;1.55;;;;;;;;;;4952233;28;20102;-82
2021/08/03 10:11:57;;;;;;;2.47;1.40;;;;;;;;;;4930268;29;20028;-86
2021/08/03 10:14:46;;;;;;;2.03;1.30;;;;;;;;;;4930996;29;20039;-87
2021/08/03 10:17:33;;;;;;;2.40;1.15;;;;;;;;;;4929593;29;20062;-88
2021/08/03 10:20:19;;;;;;;2.40;1.40;;;;;;;;;;4941064;28;20735;-84
2021/08/03 10:23:06;;;;;;;3.60;1.33;;;;;;;;;;4914667;29;20031;-83
2021/08/03 10:25:52;;;;;;;2.30;1.80;;;;;;;;;;4932078;29;20451;-80
2021/08/03 10:28:37;;;;;;;3.70;1.40;;;;;;;;;;4939764;28;20035;-80
2021/08/03 10:31:36;;;;;;;2.20;1.25;;;;;;;;;;4941104;29;20142;-80
2021/08/03 10:34:40;;;;;;;1.53;1.30;;;;;;;;;;4929787;29;20087;-84
2021/08/03 10:37:25;;;;;;;1.45;1.30;;;;;;;;;;4930279;29;20058;-82
2021/08/03 10:40:11;;;;;;;1.60;1.35;;;;;;;;;;4930631;29;20028;-87
2021/08/03 10:43:12;;;;;;;3.40;1.50;;;;;;;;;;4944789;28;20094;-86
2021/08/03 10:46:07;;;;;;;3.30;1.63;;;;;;;;;;4927759;29;20141;-85
2021/08/03 10:48:54;;;;;;;4.22;1.20;;;;;;;;;;4914892;29;20026;-85
2021/08/03 10:51:39;;;;;;;1.45;1.25;;;;;;;;;;4929158;29;20042;-85
2021/08/03 10:54:28;;;;;;;4.72;1.83;;;;;;;;;;4914547;29;20027;-84
2021/08/03 10:57:13;;;;;;;5.97;2.10;;;;;;;;;;4936410;29;20494;-86
2021/08/03 11:00:00;;;;;;;2.30;1.60;;;;;;;;;;4929582;29;20035;-85
2021/08/03 11:02:46;;;;;;;22.90;14.57;;;;;;;;;;4923362;29;20174;-88
2021/08/03 11:05:32;;;;;;;9.43;5.95;;;;;;;;;;4927432;29;20426;-87
2021/08/03 11:08:30;;;;;;;3.75;2.40;;;;;;;;;;4917400;29;20099;-86
2021/08/03 11:11:18;;;;;;;2.28;1.90;;;;;;;;;;4915556;29;20032;-86
2021/08/03 11:14:07;;;;;;;3.35;1.70;;;;;;;;;;4928475;29;20533;-88
2021/08/03 11:16:52;;;;;;;3.28;1.67;;;;;;;;;;4937398;29;20032;-89
2021/08/03 11:19:37;;;;;;;5.68;1.77;;;;;;;;;;4933767;29;20504;-87
2021/08/03 11:22:42;;;;;;;1.33;1.15;;;;;;;;;;4933022;29;20032;-88
2021/08/03 11:25:28;;;;;;;4.50;1.70;;;;;;;;;;4940152;29;20027;-89
2021/08/03 11:28:14;;;;;;;3.28;1.45;;;;;;;;;;4930490;29;20683;-87
2021/08/03 11:31:00;;;;;;;2.92;1.60;;;;;;;;;;4929951;29;20032;-91
2021/08/03 11:33:45;;;;;;;4.25;1.65;;;;;;;;;;4925210;29;20111;-87
2021/08/03 11:36:31;;;;;;;4.00;1.92;;;;;;;;;;4923396;29;20386;-87
2021/08/03 11:39:20;;;;;;;4.88;2.05;;;;;;;;;;4938543;29;20106;-89
2021/08/03 11:42:06;;;;;;;2.22;1.30;;;;;;;;;;4919017;29;20518;-87
2021/08/03 11:45:06;;;;;;;4.10;1.92;;;;;;;;;;4942475;29;20496;-84
2021/08/03 11:47:53;;;;;;;2.42;1.65;;;;;;;;;;4943106;29;20037;-87
2021/08/03 11:50:39;;;;;;;4.78;2.05;;;;;;;;;;4928122;29;20031;-86
2021/08/03 11:53:25;;;;;;;5.70;1.90;;;;;;;;;;4935537;29;20510;-87
2021/08/03 11:56:10;;;;;;;1.70;1.50;;;;;;;;;;4942312;28;20074;-86
2021/08/03 11:59:01;;;;;;;2.83;1.75;;;;;;;;;;4942996;29;20023;-89
2021/08/03 12:01:51;;;;;;;3.58;1.90;;;;;;;;;;4938684;29;20027;-88
2021/08/03 12:04:36;;;;;;;;;;;;;;;;;;4933346;29;20506;-88
2021/08/03 12:07:22;;;;;;;4.93;1.67;;;;;;;;;;4927172;29;19933;-85
2021/08/03 12:10:08;;;;;;;2.55;1.73;;;;;;;;;;4915155;29;20028;-85
2021/08/03 12:12:53;;;;;;;2.13;1.77;;;;;;;;;;4943848;28;20047;-85
2021/08/03 12:15:46;;;;;;;2.55;1.52;;;;;;;;;;4935817;29;20479;-83
2021/08/03 12:18:35;;;;;;;2.55;1.42;;;;;;;;;;4930348;29;20661;-85
2021/08/03 12:21:20;;;;;;;2.25;1.48;;;;;;;;;;4930133;29;20030;-84
2021/08/03 12:24:06;;;;;;;3.80;1.30;;;;;;;;;;4943709;28;20379;-85
2021/08/03 12:27:08;;;;;;;3.33;1.70;;;;;;;;;;4934442;29;20023;-81
2021/08/03 12:29:53;;;;;;;1.90;1.48;;;;;;;;;;4933236;28;20030;-82
2021/08/03 12:32:39;;;;;;;1.98;1.45;;;;;;;;;;4928141;29;20072;-83
2021/08/03 12:35:24;;;;;;;1.88;1.38;;;;;;;;;;4928119;29;20024;-81
2021/08/03 12:38:13;;;;;;;2.90;1.48;;;;;;;;;;4945020;28;20612;-83
2021/08/03 12:40:58;;;;;;;1.58;1.38;;;;;;;;;;4933571;29;20043;-83
2021/08/03 12:43:44;;;;;;;1.83;1.52;;;;;;;;;;4932832;29;20114;-83
2021/08/03 12:46:33;;;;;;;1.83;1.35;;;;;;;;;;4943009;29;20039;-83
2021/08/03 12:49:18;;;;;;;;;;;;;;;;;;4933446;29;20028;-83
2021/08/03 12:52:10;;;;;;;2.17;1.75;;;;;;;;;;4927450;29;20276;-84
2021/08/03 12:54:57;;;;;;;1.58;1.15;;;;;;;;;;4920034;29;20052;-84
2021/08/03 12:57:49;;;;;;;0.80;0.80;;;;;;;;;;4934236;29;20458;-90
2021/08/03 13:00:39;;;;;;;1.48;1.20;;;;;;;;;;4937654;29;20056;-86
2021/08/03 13:03:24;;;;;;;;;;;;;;;;;;4944042;28;20108;-86
2021/08/03 13:06:09;;;;;;;1.40;1.30;;;;;;;;;;4932880;29;20028;-86
2021/08/03 13:08:54;;;;;;;1.52;1.40;;;;;;;;;;4953164;28;20023;-85
2021/08/03 13:11:40;;;;;;;1.80;1.25;;;;;;;;;;4925159;29;20035;-85
2021/08/03 13:14:25;;;;;;;2.45;0.90;;;;;;;;;;4935780;29;20478;-85
2021/08/03 13:17:10;;;;;;;2.80;1.70;;;;;;;;;;4931724;29;20028;-86
2021/08/03 13:19:56;;;;;;;4.03;2.35;;;;;;;;;;4942835;29;20047;-85
2021/08/03 13:22:41;;;;;;;1.08;0.90;;;;;;;;;;4949040;29;20038;-88
2021/08/03 13:25:26;;;;;;;2.05;1.10;;;;;;;;;;4955403;28;20363;-87
2021/08/03 13:28:12;;;;;;;1.58;1.20;;;;;;;;;;4939895;29;20134;-84
2021/08/03 13:30:57;;;;;;;2.45;1.20;;;;;;;;;;4932133;29;20432;-86
2021/08/03 13:33:42;;;;;;;2.08;1.23;;;;;;;;;;4938373;29;20086;-85
2021/08/03 13:36:27;;;;;;;2.25;1.33;;;;;;;;;;4916772;29;20024;-86
2021/08/03 13:39:13;;;;;;;1.92;1.33;;;;;;;;;;4946392;29;20030;-87
2021/08/03 13:41:58;;;;;;;2.03;1.73;;;;;;;;;;4944085;29;20264;-88
2021/08/03 13:44:47;;;;;;;2.20;1.40;;;;;;;;;;4935536;29;20043;-85
2021/08/03 13:47:32;;;;;;;2.25;1.63;;;;;;;;;;4930268;29;20114;-86
2021/08/03 13:50:17;;;;;;;1.80;1.40;;;;;;;;;;4932838;29;20031;-85
2021/08/03 13:53:03;;;;;;;3.38;2.08;;;;;;;;;;4931930;29;20050;-86
2021/08/03 13:55:48;;;;;;;3.00;1.52;;;;;;;;;;4930253;29;20051;-86
2021/08/03 13:58:33;;;;;;;1.83;1.45;;;;;;;;;;4932053;29;20053;-85
2021/08/03 14:01:19;;;;;;;1.88;1.50;;;;;;;;;;4936260;29;20487;-86
2021/08/03 14:04:04;;;;;;;2.17;1.55;;;;;;;;;;4928462;29;20471;-88
2021/08/03 14:06:50;;;;;;;3.53;1.63;;;;;;;;;;4931040;29;20741;-87
2021/08/03 14:09:35;;;;;;;2.30;1.35;;;;;;;;;;4946699;28;20024;-86
2021/08/03 14:12:20;;;;;;;1.60;1.40;;;;;;;;;;4931090;29;20035;-87
2021/08/03 14:15:06;;;;;;;1.58;1.35;;;;;;;;;;4929738;29;20032;-84
2021/08/03 14:17:51;;;;;;;2.58;1.42;;;;;;;;;;4943493;28;20347;-85
2021/08/03 14:20:36;;;;;;;1.30;1.13;;;;;;;;;;4933448;29;20174;-85
2021/08/03 14:23:21;;;;;;;5.53;2.97;;;;;;;;;;4934530;29;20083;-86
2021/08/03 14:26:06;;;;;;;1.27;1.15;;;;;;;;;;4932179;29;20146;-87
2021/08/03 14:28:52;;;;;;;1.30;1.20;;;;;;;;;;4930615;29;20023;-87
2021/08/03 14:31:37;;;;;;;1.38;1.27;;;;;;;;;;4928895;29;20028;-86
2021/08/03 14:34:22;;;;;;;1.98;1.42;;;;;;;;;;4935691;29;20031;-86
2021/08/03 14:37:07;;;;;;;3.53;1.30;;;;;;;;;;4933588;29;20474;-86
2021/08/03 14:39:53;;;;;;;2.20;1.40;;;;;;;;;;4927409;29;20039;-87
2021/08/03 14:42:38;;;;;;;1.88;1.20;;;;;;;;;;4922217;29;20015;-86
2021/08/03 14:45:23;;;;;;;0.93;0.90;;;;;;;;;;4930314;29;20382;-87
2021/08/03 14:48:08;;;;;;;1.40;1.30;;;;;;;;;;4929642;29;20119;-88
2021/08/03 14:50:54;;;;;;;1.33;1.23;;;;;;;;;;4931138;29;20020;-85
2021/08/03 14:53:39;;;;;;;3.20;1.23;;;;;;;;;;4935032;29;20027;-85
2021/08/03 14:56:25;;;;;;;1.30;1.20;;;;;;;;;;4934139;29;20102;-86
2021/08/03 14:59:10;;;;;;;2.45;1.52;;;;;;;;;;4924612;29;20075;-81
2021/08/03 15:01:55;;;;;;;2.42;1.40;;;;;;;;;;4929397;29;20128;-81
2021/08/03 15:04:40;;;;;;;2.70;1.80;;;;;;;;;;4941947;29;20030;-85
2021/08/03 15:07:26;;;;;;;4.30;2.80;;;;;;;;;;4936989;29;20386;-81
2021/08/03 15:10:12;;;;;;;1.75;1.40;;;;;;;;;;4918295;29;20032;-82
2021/08/03 15:12:58;;;;;;;1.80;1.38;;;;;;;;;;4936200;29;20036;-82
2021/08/03 15:15:42;;;;;;;2.88;1.38;;;;;;;;;;4924805;29;20541;-83
2021/08/03 15:18:26;;;;;;;1.48;1.20;;;;;;;;;;4928923;29;20077;-83
2021/08/03 15:21:12;;;;;;;2.78;1.30;;;;;;;;;;4933142;29;20051;-84
2021/08/03 15:23:57;;;;;;;2.15;1.17;;;;;;;;;;4932004;29;20523;-82
2021/08/03 15:26:43;;;;;;;2.08;1.30;;;;;;;;;;4918851;29;20463;-82
2021/08/03 15:29:28;;;;;;;6.53;4.72;;;;;;;;;;4928560;29;20026;-82
2021/08/03 15:32:14;;;;;;;5.28;2.60;;;;;;;;;;4927744;29;20028;-83
2021/08/03 15:34:59;;;;;;;6.40;1.85;;;;;;;;;;4929572;29;20035;-83
2021/08/03 15:37:45;;;;;;;10.90;2.20;;;;;;;;;;4932476;29;20209;-79
2021/08/03 15:40:31;;;;;;;2.63;1.77;;;;;;;;;;4932552;29;20027;-81
2021/08/03 15:43:17;;;;;;;15.73;3.33;;;;;;;;;;4933143;29;20031;-85
2021/08/03 15:46:04;;;;;;;6.80;1.77;;;;;;;;;;4928571;29;20024;-82
2021/08/03 15:48:49;;;;;;;10.90;2.50;;;;;;;;;;4928709;29;20038;-82
2021/08/03 15:51:35;;;;;;;6.60;1.70;;;;;;;;;;4940946;29;20028;-82
2021/08/03 15:54:21;;;;;;;7.97;2.35;;;;;;;;;;4931988;29;20023;-81
2021/08/03 15:57:06;;;;;;;4.32;1.60;;;;;;;;;;4929488;29;20458;-81
2021/08/03 15:59:52;;;;;;;5.00;2.03;;;;;;;;;;4931483;29;20038;-81
2021/08/03 16:02:37;;;;;;;5.03;1.73;;;;;;;;;;4932978;29;20106;-81
2021/08/03 16:05:23;;;;;;;4.03;2.40;;;;;;;;;;4931571;29;20059;-81
2021/08/03 16:08:08;;;;;;;3.17;1.92;;;;;;;;;;4943834;29;20032;-81
2021/08/03 16:10:54;;;;;;;1.98;1.40;;;;;;;;;;4931099;29;20028;-81
2021/08/03 16:13:39;;;;;;;4.43;1.65;;;;;;;;;;4935271;29;20020;-81
2021/08/03 16:16:25;;;;;;;7.45;1.60;;;;;;;;;;4938060;29;20055;-81
2021/08/03 16:19:11;;;;;;;2.78;1.83;;;;;;;;;;4945085;29;20648;-81
2021/08/03 16:21:57;;;;;;;2.60;1.63;;;;;;;;;;4920039;29;20028;-81
2021/08/03 16:24:44;;;;;;;1.90;1.33;;;;;;;;;;4935012;29;20051;-83
2021/08/03 16:27:30;;;;;;;3.15;1.70;;;;;;;;;;4931727;29;20040;-82
2021/08/03 16:30:16;;;;;;;2.38;1.17;;;;;;;;;;4935977;29;20042;-81
2021/08/03 16:33:02;;;;;;;2.25;1.70;;;;;;;;;;4935502;29;20036;-82
2021/08/03 16:35:50;;;;;;;2.28;1.60;;;;;;;;;;4934662;29;20075;-81
2021/08/03 16:38:38;;;;;;;3.80;1.50;;;;;;;;;;4935572;29;20499;-81
2021/08/03 16:41:24;;;;;;;2.22;1.50;;;;;;;;;;4935976;29;20090;-81